Time;durP1;ratioP1;P1;durP2;ratioP2;P2;SDS_P1;SDS_P2;PMS_P1;PMS_P2;Temp;Humidity;BMP_temperature;BMP_pressure;BME280_temperature;BME280_humidity;BME280_pressure;Samples;Min_cycle;Max_cycle;Signal;HPM_P1;HPM_P2
2021/04/13 18:20:30;;;;;;;7.15;1.33;;;;;;;;;;5107087;27;20164;-63
2021/04/13 18:23:28;;;;;;;7.30;1.35;;;;;;;;;;5106089;28;20097;-64
2021/04/13 18:26:14;;;;;;;2.78;1.25;;;;;;;;;;5107060;28;20505;-63
2021/04/13 18:29:00;;;;;;;2.67;1.20;;;;;;;;;;5106826;28;20044;-63
2021/04/13 18:31:47;;;;;;;3.95;1.40;;;;;;;;;;5104910;28;20109;-64
2021/04/13 18:34:32;;;;;;;3.45;1.48;;;;;;;;;;5074406;28;20044;-63
2021/04/13 18:37:21;;;;;;;3.63;1.13;;;;;;;;;;5087240;28;20399;-64
2021/04/13 18:40:31;;;;;;;2.05;1.15;;;;;;;;;;5071940;28;20048;-63
2021/04/13 18:43:28;;;;;;;2.83;1.75;;;;;;;;;;5095574;28;20418;-64
2021/04/13 18:46:18;;;;;;;2.03;1.35;;;;;;;;;;5094987;28;20047;-63
2021/04/13 18:49:05;;;;;;;3.72;1.38;;;;;;;;;;5091941;28;20514;-63
2021/04/13 18:51:54;;;;;;;4.25;1.33;;;;;;;;;;5091172;28;20040;-63
2021/04/13 18:54:41;;;;;;;3.83;2.25;;;;;;;;;;5085963;28;20551;-64
2021/04/13 18:57:27;;;;;;;6.85;1.60;;;;;;;;;;5106236;28;20043;-64
2021/04/13 19:00:14;;;;;;;4.55;1.77;;;;;;;;;;5092161;28;20056;-64
2021/04/13 19:03:04;;;;;;;2.13;1.45;;;;;;;;;;5094937;28;20055;-64
2021/04/13 19:05:51;;;;;;;3.17;1.40;;;;;;;;;;5098672;28;20048;-64
2021/04/13 19:08:43;;;;;;;6.10;2.83;;;;;;;;;;5094273;28;20049;-64
2021/04/13 19:11:30;;;;;;;20.02;9.80;;;;;;;;;;5084727;28;20044;-64
2021/04/13 19:14:18;;;;;;;10.63;5.85;;;;;;;;;;5087365;28;20514;-64
2021/04/13 19:17:07;;;;;;;21.48;8.05;;;;;;;;;;5086660;28;20059;-64
2021/04/13 19:20:11;;;;;;;74.28;36.97;;;;;;;;;;5085093;28;20055;-64
2021/04/13 19:23:09;;;;;;;19.25;9.30;;;;;;;;;;5085806;28;20052;-64
2021/04/13 19:26:01;;;;;;;54.40;27.67;;;;;;;;;;5098099;28;20052;-64
2021/04/13 19:28:56;;;;;;;13.52;6.68;;;;;;;;;;5106924;28;20044;-64
2021/04/13 19:31:43;;;;;;;16.10;9.77;;;;;;;;;;5092565;28;20043;-64
2021/04/13 19:35:03;;;;;;;24.23;12.52;;;;;;;;;;5058951;28;20187;-65
2021/04/13 19:37:50;;;;;;;6.85;2.78;;;;;;;;;;5072571;28;20048;-64
2021/04/13 19:40:36;;;;;;;5.18;2.65;;;;;;;;;;5071075;28;20041;-64
2021/04/13 19:43:26;;;;;;;7.68;5.13;;;;;;;;;;5071177;28;20418;-64
2021/04/13 19:46:12;;;;;;;6.07;3.58;;;;;;;;;;5080611;28;20051;-64
2021/04/13 19:49:03;;;;;;;6.75;3.30;;;;;;;;;;5093042;28;20044;-64
2021/04/13 19:51:53;;;;;;;5.53;3.00;;;;;;;;;;5091107;28;20056;-64
2021/04/13 19:54:58;;;;;;;3.60;2.00;;;;;;;;;;5090948;28;20117;-64
2021/04/13 19:57:44;;;;;;;4.90;2.30;;;;;;;;;;5092453;28;20506;-64
2021/04/13 20:00:29;;;;;;;4.97;2.20;;;;;;;;;;5092056;28;20048;-64
2021/04/13 20:03:18;;;;;;;6.05;1.92;;;;;;;;;;5091442;28;20044;-64
2021/04/13 20:06:10;;;;;;;6.10;1.75;;;;;;;;;;5087185;28;20098;-64
2021/04/13 20:08:55;;;;;;;7.22;2.00;;;;;;;;;;5071796;28;20052;-64
2021/04/13 20:11:46;;;;;;;4.43;1.90;;;;;;;;;;5071638;28;20529;-64
2021/04/13 20:14:33;;;;;;;6.32;3.60;;;;;;;;;;5071646;28;20044;-64
2021/04/13 20:17:25;;;;;;;7.25;2.05;;;;;;;;;;5077810;28;20082;-64
2021/04/13 20:20:15;;;;;;;5.18;2.67;;;;;;;;;;5076890;28;20040;-64
2021/04/13 20:23:03;;;;;;;3.80;3.28;;;;;;;;;;5088932;28;20041;-64
2021/04/13 20:25:50;;;;;;;7.95;4.68;;;;;;;;;;5090993;28;20047;-64
2021/04/13 20:28:38;;;;;;;6.97;3.20;;;;;;;;;;5091489;28;20048;-64
2021/04/13 20:31:27;;;;;;;5.43;2.38;;;;;;;;;;5088779;28;20437;-64
2021/04/13 20:35:06;;;;;;;8.77;2.55;;;;;;;;;;5070781;28;20052;-64
2021/04/13 20:40:32;;;;;;;5.72;2.88;;;;;;;;;;5069851;28;20044;-64
2021/04/13 20:43:23;;;;;;;3.90;2.17;;;;;;;;;;5068651;28;20048;-64
2021/04/13 20:46:12;;;;;;;4.90;2.33;;;;;;;;;;5070495;28;20056;-64
2021/04/13 20:49:10;;;;;;;6.68;2.67;;;;;;;;;;5070414;28;20052;-64
2021/04/13 20:52:07;;;;;;;7.80;2.53;;;;;;;;;;5071128;28;20040;-64
2021/04/13 20:55:06;;;;;;;4.05;2.58;;;;;;;;;;5091168;28;20051;-64
2021/04/13 20:57:54;;;;;;;12.00;6.93;;;;;;;;;;5090495;28;20128;-64
2021/04/13 21:00:47;;;;;;;25.25;14.45;;;;;;;;;;5089613;28;20060;-64
2021/04/13 21:03:34;;;;;;;;;;;;;;;;;;5076974;28;20045;-64
2021/04/13 21:06:32;;;;;;;8.65;4.05;;;;;;;;;;5070347;28;20466;-64
2021/04/13 21:09:28;;;;;;;6.20;3.47;;;;;;;;;;5070455;28;20048;-64
2021/04/13 21:12:14;;;;;;;9.48;5.03;;;;;;;;;;5069789;28;20053;-64
2021/04/13 21:15:16;;;;;;;6.38;3.28;;;;;;;;;;5071907;28;20040;-64
2021/04/13 21:18:03;;;;;;;7.13;2.88;;;;;;;;;;5071558;28;20040;-64
2021/04/13 21:20:48;;;;;;;7.95;3.38;;;;;;;;;;5072523;28;20131;-64
2021/04/13 21:23:38;;;;;;;8.63;3.05;;;;;;;;;;5072159;28;20045;-64
2021/04/13 21:26:28;;;;;;;5.45;3.35;;;;;;;;;;5072493;28;20041;-64
2021/04/13 21:29:18;;;;;;;7.38;3.10;;;;;;;;;;5071458;28;20036;-64
2021/04/13 21:32:03;;;;;;;3.35;2.25;;;;;;;;;;5071589;28;20045;-64
2021/04/13 21:34:59;;;;;;;5.03;2.60;;;;;;;;;;5072010;28;20051;-64
2021/04/13 21:38:03;;;;;;;7.28;2.90;;;;;;;;;;5071619;28;20047;-64
2021/04/13 21:40:58;;;;;;;6.57;2.95;;;;;;;;;;5072107;28;20055;-66
2021/04/13 21:44:03;;;;;;;4.70;2.58;;;;;;;;;;5073065;28;20044;-66
2021/04/13 21:46:49;;;;;;;4.28;2.92;;;;;;;;;;5069391;28;20044;-67
2021/04/13 21:49:36;;;;;;;6.72;3.10;;;;;;;;;;5091396;28;20040;-65
2021/04/13 21:52:25;;;;;;;7.78;3.05;;;;;;;;;;5091585;28;20044;-65
2021/04/13 21:55:24;;;;;;;5.28;3.22;;;;;;;;;;5089115;28;20043;-65
2021/04/13 21:58:23;;;;;;;4.30;3.63;;;;;;;;;;5091374;28;20049;-65
2021/04/13 22:01:12;;;;;;;5.10;3.90;;;;;;;;;;5131978;22;20052;-63
2021/04/13 22:04:04;;;;;;;6.65;3.70;;;;;;;;;;5077094;28;20040;-63
2021/04/13 22:07:16;;;;;;;6.35;3.33;;;;;;;;;;5057213;28;20433;-63
2021/04/13 22:10:14;;;;;;;8.07;3.40;;;;;;;;;;5097113;28;20131;-63
2021/04/13 22:13:00;;;;;;;6.90;3.47;;;;;;;;;;5090289;28;20044;-63
2021/04/13 22:16:05;;;;;;;8.23;3.22;;;;;;;;;;5077165;28;20040;-63
2021/04/13 22:18:52;;;;;;;9.88;3.28;;;;;;;;;;5057171;28;20041;-63
2021/04/13 22:21:38;;;;;;;3.85;2.70;;;;;;;;;;5056540;28;20495;-63
2021/04/13 22:24:24;;;;;;;7.57;3.10;;;;;;;;;;5056834;28;20044;-63
2021/04/13 22:27:09;;;;;;;10.18;3.28;;;;;;;;;;5057013;28;20082;-63
2021/04/13 22:29:55;;;;;;;8.95;2.88;;;;;;;;;;5084431;28;20075;-63
2021/04/13 22:32:51;;;;;;;9.90;3.17;;;;;;;;;;5091952;28;20086;-62
2021/04/13 22:35:40;;;;;;;6.38;3.05;;;;;;;;;;5089849;28;20048;-62
2021/04/13 22:38:36;;;;;;;5.53;3.40;;;;;;;;;;5076875;28;20044;-62
2021/04/13 22:41:21;;;;;;;6.30;3.00;;;;;;;;;;5076435;28;20063;-62
2021/04/13 22:44:07;;;;;;;8.57;3.35;;;;;;;;;;5076781;28;20063;-62
2021/04/13 22:46:53;;;;;;;6.80;2.78;;;;;;;;;;5091203;28;20533;-62
2021/04/13 22:49:38;;;;;;;8.85;4.68;;;;;;;;;;5091417;28;20508;-62
2021/04/13 22:52:48;;;;;;;9.02;4.50;;;;;;;;;;5076750;28;20051;-62
2021/04/13 22:55:35;;;;;;;7.30;3.95;;;;;;;;;;5075991;28;20044;-62
2021/04/13 22:58:26;;;;;;;6.72;3.42;;;;;;;;;;5076652;28;20493;-62
2021/04/13 23:01:11;;;;;;;7.07;4.00;;;;;;;;;;5091332;28;20048;-62
2021/04/13 23:03:57;;;;;;;6.68;4.35;;;;;;;;;;5091716;28;20044;-62
2021/04/13 23:06:50;;;;;;;8.30;4.35;;;;;;;;;;5093777;28;20531;-62
2021/04/13 23:09:35;;;;;;;5.68;4.18;;;;;;;;;;5095315;28;20071;-62
2021/04/13 23:12:21;;;;;;;12.27;4.72;;;;;;;;;;5095312;28;20093;-62
2021/04/13 23:15:07;;;;;;;10.48;4.95;;;;;;;;;;5095563;28;20399;-62
2021/04/13 23:17:53;;;;;;;4.47;3.17;;;;;;;;;;5094492;28;20044;-62
2021/04/13 23:20:38;;;;;;;7.72;4.43;;;;;;;;;;5094981;28;20076;-62
2021/04/13 23:23:25;;;;;;;8.50;4.72;;;;;;;;;;5095131;28;20573;-62
2021/04/13 23:26:10;;;;;;;10.52;5.20;;;;;;;;;;5094382;28;20048;-62
2021/04/13 23:28:56;;;;;;;7.28;4.90;;;;;;;;;;5095188;28;20044;-63
2021/04/13 23:31:42;;;;;;;9.25;4.45;;;;;;;;;;5094970;28;20071;-63
2021/04/13 23:34:27;;;;;;;9.25;5.55;;;;;;;;;;5095101;28;20051;-62
2021/04/13 23:37:12;;;;;;;11.15;6.28;;;;;;;;;;5093998;28;20616;-62
2021/04/13 23:39:57;;;;;;;12.10;6.50;;;;;;;;;;5094875;28;20052;-63
2021/04/13 23:42:43;;;;;;;9.27;5.28;;;;;;;;;;5094750;28;20405;-63
2021/04/13 23:45:30;;;;;;;7.40;4.20;;;;;;;;;;5094818;28;20040;-62
2021/04/13 23:48:15;;;;;;;11.77;5.32;;;;;;;;;;5094131;28;20055;-62
2021/04/13 23:51:01;;;;;;;10.98;6.93;;;;;;;;;;5094396;28;20067;-62
2021/04/13 23:53:46;;;;;;;9.25;5.90;;;;;;;;;;5094784;28;20048;-63
2021/04/13 23:56:31;;;;;;;8.25;6.03;;;;;;;;;;5094634;28;20435;-63
2021/04/13 23:59:16;;;;;;;13.15;6.05;;;;;;;;;;5093673;28;20040;-63
